createdAt,value
2022-11-12T00:00:53.967Z,100770.69
2022-11-12T00:03:57.333Z,100759.31
2022-11-12T00:06:59.556Z,100762.75
2022-11-12T00:10:01.864Z,100758.44
2022-11-12T00:13:04.115Z,100760.81
2022-11-12T00:16:06.616Z,100749.41
2022-11-12T00:19:08.846Z,100750.97
2022-11-12T00:22:10.984Z,100745.94
2022-11-12T00:25:13.201Z,100749.44
2022-11-12T00:28:15.365Z,100743.03
2022-11-12T00:31:17.586Z,100754.69
2022-11-12T00:34:20.444Z,100748.16
2022-11-12T00:37:23.315Z,100740.62
2022-11-12T00:40:25.636Z,100741.91
2022-11-12T00:43:28.206Z,100746.66
2022-11-12T00:46:30.481Z,100740.41
2022-11-12T00:49:32.673Z,100735.25
2022-11-12T00:52:34.823Z,100735.28
2022-11-12T00:55:37.000Z,100735.81
2022-11-12T00:58:39.240Z,100728.31
2022-11-12T01:01:41.528Z,100739.13
2022-11-12T01:04:43.780Z,100737.47
2022-11-12T01:07:46.176Z,100732.28
2022-11-12T01:10:48.297Z,100728.13
2022-11-12T01:13:58.919Z,100734.69
2022-11-12T01:17:01.102Z,100729.38
2022-11-12T01:20:03.568Z,100736.62
2022-11-12T01:23:06.505Z,100729.13
2022-11-12T01:26:11.646Z,100724.13
2022-11-12T01:29:14.043Z,100732.03
2022-11-12T01:32:16.225Z,100725.66
2022-11-12T01:35:18.405Z,100713.97
2022-11-12T01:38:20.555Z,100719.94
2022-11-12T01:41:27.611Z,100722.28
2022-11-12T01:44:35.358Z,100720.59
2022-11-12T01:47:37.583Z,100723.00
2022-11-12T01:50:40.521Z,100710.34
2022-11-12T01:53:45.949Z,100706.47
2022-11-12T01:56:49.632Z,100699.50
2022-11-12T01:59:53.586Z,100712.44
2022-11-12T02:02:58.754Z,100705.31
2022-11-12T02:06:10.179Z,100708.44
2022-11-12T02:09:13.606Z,100702.88
2022-11-12T02:12:34.713Z,100698.97
2022-11-12T02:15:38.764Z,100694.41
2022-11-12T02:18:40.908Z,100694.66
2022-11-12T02:21:43.221Z,100692.59
2022-11-12T02:24:45.409Z,100691.78
2022-11-12T02:27:51.764Z,100689.00
2022-11-12T02:30:53.962Z,100696.25
2022-11-12T02:33:56.481Z,100696.38
2022-11-12T02:36:58.632Z,100694.16
2022-11-12T02:40:00.802Z,100699.44
2022-11-12T02:43:03.338Z,100698.03
2022-11-12T02:46:05.577Z,100698.19
2022-11-12T02:49:07.735Z,100696.34
2022-11-12T02:52:09.884Z,100695.81
2022-11-12T02:55:12.726Z,100700.41
2022-11-12T02:58:15.002Z,100701.50
2022-11-12T03:01:17.272Z,100699.72
2022-11-12T03:04:19.534Z,100711.25
2022-11-12T03:07:21.783Z,100696.38
2022-11-12T03:10:25.024Z,100705.00
2022-11-12T03:13:27.193Z,100713.06
2022-11-12T03:16:29.365Z,100713.47
2022-11-12T03:19:32.005Z,100714.53
2022-11-12T03:22:34.178Z,100723.03
2022-11-12T03:25:36.942Z,100719.19
2022-11-12T03:28:39.148Z,100720.69
2022-11-12T03:31:41.469Z,100711.50
2022-11-12T03:34:43.800Z,100716.44
2022-11-12T03:37:46.105Z,100722.44
2022-11-12T03:40:49.063Z,100715.72
2022-11-12T03:43:51.235Z,100722.75
2022-11-12T03:46:53.391Z,100718.50
2022-11-12T03:49:56.007Z,100717.56
2022-11-12T03:52:59.497Z,100712.72
2022-11-12T03:56:01.688Z,100711.59
2022-11-12T03:59:04.008Z,100707.19
2022-11-12T04:02:06.156Z,100710.81
2022-11-12T04:05:28.986Z,100715.69
2022-11-12T04:08:37.276Z,100708.47
2022-11-12T04:11:39.459Z,100710.81
2022-11-12T04:14:41.725Z,100708.59
2022-11-12T04:18:02.233Z,100718.19
2022-11-12T04:21:22.992Z,100719.00
2022-11-12T04:24:44.853Z,100712.75
2022-11-12T04:27:47.006Z,100717.31
2022-11-12T04:30:49.227Z,100715.37
2022-11-12T04:33:51.394Z,100709.28
2022-11-12T04:36:53.734Z,100704.28
2022-11-12T04:40:15.882Z,100697.06
2022-11-12T04:43:39.314Z,100701.75
2022-11-12T04:46:41.469Z,100703.16
2022-11-12T04:49:43.846Z,100714.13
2022-11-12T04:52:46.036Z,100717.19
2022-11-12T04:55:52.225Z,100709.53
2022-11-12T04:58:54.406Z,100715.75
2022-11-12T05:01:56.589Z,100712.84
2022-11-12T05:04:58.766Z,100722.16
2022-11-12T05:08:02.086Z,100713.53
2022-11-12T05:11:07.539Z,100720.75
2022-11-12T05:14:12.433Z,100717.22
2022-11-12T05:17:14.630Z,100713.59
2022-11-12T05:20:17.381Z,100718.87
2022-11-12T05:23:19.507Z,100725.41
2022-11-12T05:26:21.681Z,100720.84
2022-11-12T05:29:23.872Z,100716.72
2022-11-12T05:32:26.824Z,100717.22
2022-11-12T05:35:28.983Z,100713.75
2022-11-12T05:38:31.151Z,100722.25
2022-11-12T05:41:57.957Z,100726.56
2022-11-12T05:44:55.706Z,100724.78
2022-11-12T05:47:57.877Z,100719.63
2022-11-12T05:51:12.491Z,100729.91
2022-11-12T05:54:15.442Z,100727.75
2022-11-12T05:57:17.619Z,100721.63
2022-11-12T06:00:19.955Z,100726.28
2022-11-12T06:03:22.316Z,100724.69
2022-11-12T06:06:24.860Z,100733.66
2022-11-12T06:09:27.046Z,100740.78
2022-11-12T06:12:29.250Z,100750.16
2022-11-12T06:15:36.482Z,100756.94
2022-11-12T06:18:41.381Z,100763.06
2022-11-12T06:21:43.586Z,100769.56
2022-11-12T06:24:46.329Z,100768.03
2022-11-12T06:27:48.592Z,100772.59
2022-11-12T06:30:50.943Z,100782.63
2022-11-12T06:33:53.188Z,100786.75
2022-11-12T06:36:55.388Z,100785.66
2022-11-12T06:39:57.573Z,100789.56
2022-11-12T06:42:59.748Z,100782.63
2022-11-12T06:46:03.901Z,100781.22
2022-11-12T06:49:06.156Z,100784.44
2022-11-12T06:52:11.139Z,100788.66
2022-11-12T06:55:17.476Z,100795.75
2022-11-12T06:58:19.673Z,100795.38
2022-11-12T07:01:21.928Z,100800.00
2022-11-12T07:04:24.795Z,100807.91
2022-11-12T07:07:26.981Z,100807.50
2022-11-12T07:10:29.183Z,100811.09
2022-11-12T07:13:32.971Z,100806.75
2022-11-12T07:16:35.554Z,100805.94
2022-11-12T07:19:37.697Z,100796.06
2022-11-12T07:22:39.878Z,100791.03
2022-11-12T07:25:42.033Z,100797.66
2022-11-12T07:28:45.315Z,100809.03
2022-11-12T07:31:47.451Z,100804.22
2022-11-12T07:34:50.324Z,100806.22
2022-11-12T07:37:53.754Z,100802.56
2022-11-12T07:41:14.721Z,100813.66
2022-11-12T07:44:16.892Z,100813.75
2022-11-12T07:47:19.069Z,100810.47
2022-11-12T07:50:21.205Z,100817.06
2022-11-12T07:53:23.395Z,100814.13
2022-11-12T07:56:26.823Z,100818.88
2022-11-12T07:59:29.057Z,100818.56
2022-11-12T08:02:31.550Z,100817.00
2022-11-12T08:05:34.164Z,100818.50
2022-11-12T08:08:36.384Z,100818.94
2022-11-12T08:11:38.597Z,100827.56
2022-11-12T08:14:40.766Z,100833.44
2022-11-12T08:17:42.963Z,100831.28
2022-11-12T08:20:45.467Z,100828.84
2022-11-12T08:23:48.612Z,100828.59
2022-11-12T08:26:51.038Z,100826.56
2022-11-12T08:29:53.281Z,100835.69
2022-11-12T08:33:00.457Z,100846.50
2022-11-12T08:36:04.451Z,100840.53
2022-11-12T08:39:08.048Z,100844.47
2022-11-12T08:42:10.252Z,100844.84
2022-11-12T08:45:12.450Z,100836.91
2022-11-12T08:48:15.598Z,100838.03
2022-11-12T08:51:17.735Z,100850.81
2022-11-12T08:54:19.893Z,100840.75
2022-11-12T08:57:22.084Z,100848.19
2022-11-12T09:00:24.344Z,100848.50
2022-11-12T09:03:26.641Z,100859.69
2022-11-12T09:06:28.843Z,100868.53
2022-11-12T09:09:30.994Z,100872.47
2022-11-12T09:12:33.215Z,100876.84
2022-11-12T09:15:38.258Z,100877.44
2022-11-12T09:18:40.827Z,100879.38
2022-11-12T09:21:43.007Z,100887.50
2022-11-12T09:24:45.170Z,100890.81
2022-11-12T09:27:48.650Z,100889.84
2022-11-12T09:30:52.813Z,100889.09
2022-11-12T09:33:54.972Z,100883.88
2022-11-12T09:36:57.135Z,100888.50
2022-11-12T09:39:59.286Z,100886.88
2022-11-12T09:43:11.024Z,100879.56
2022-11-12T09:46:28.116Z,100893.78
2022-11-12T09:49:44.273Z,100893.28
2022-11-12T09:52:48.965Z,100895.28
2022-11-12T09:55:51.111Z,100897.78
2022-11-12T09:58:53.966Z,100903.41
2022-11-12T10:02:05.900Z,100896.56
2022-11-12T10:05:25.145Z,100908.94
2022-11-12T10:08:35.612Z,100900.56
2022-11-12T10:12:03.994Z,100908.50
2022-11-12T10:15:46.780Z,100900.12
2022-11-12T10:19:11.400Z,100893.81
2022-11-12T10:22:28.833Z,100884.34
2022-11-12T10:25:32.231Z,100888.00
2022-11-12T10:28:39.241Z,100880.22
2022-11-12T10:31:41.641Z,100889.22
2022-11-12T10:34:43.842Z,100879.62
2022-11-12T10:38:05.002Z,100887.78
2022-11-12T10:41:23.118Z,100886.78
2022-11-12T10:44:27.505Z,100891.50
2022-11-12T10:47:42.955Z,100892.81
2022-11-12T10:50:45.278Z,100888.03
2022-11-12T10:53:47.556Z,100886.62
2022-11-12T10:56:54.951Z,100880.34
2022-11-12T11:00:10.753Z,100874.25
2022-11-12T11:03:17.699Z,100866.59
2022-11-12T11:06:22.963Z,100857.63
2022-11-12T11:09:25.466Z,100865.84
2022-11-12T11:12:32.399Z,100869.31
2022-11-12T11:15:34.712Z,100869.19
2022-11-12T11:18:39.024Z,100869.00
2022-11-12T11:21:50.514Z,100858.56
2022-11-12T11:25:07.888Z,100863.06
2022-11-12T11:28:39.278Z,100856.06
2022-11-12T11:32:04.729Z,100854.41
2022-11-12T11:35:19.192Z,100858.28
2022-11-12T11:38:30.589Z,100854.59
2022-11-12T11:41:38.920Z,100854.69
2022-11-12T11:45:09.946Z,100855.78
2022-11-12T11:48:41.454Z,100852.94
2022-11-12T11:52:03.081Z,100848.66
2022-11-12T11:55:05.408Z,100845.81
2022-11-12T11:58:29.420Z,100846.28
2022-11-12T12:01:57.339Z,100846.84
2022-11-12T12:05:17.883Z,100851.34
2022-11-12T12:08:32.206Z,100850.59
2022-11-12T12:11:45.451Z,100841.53
2022-11-12T12:14:56.543Z,100830.78
2022-11-12T12:18:14.617Z,100825.72
2022-11-12T12:21:18.880Z,100832.34
2022-11-12T12:24:30.719Z,100827.28
2022-11-12T12:27:35.951Z,100823.63
2022-11-12T12:30:42.589Z,100821.09
2022-11-12T12:33:53.072Z,100816.00
2022-11-12T12:37:02.460Z,100811.88
2022-11-12T12:40:06.328Z,100819.13
2022-11-12T12:43:43.834Z,100817.66
2022-11-12T12:46:49.510Z,100812.84
2022-11-12T12:49:52.415Z,100809.28
2022-11-12T12:53:12.790Z,100815.22
2022-11-12T12:56:14.903Z,100812.34
2022-11-12T12:59:24.422Z,100810.28
2022-11-12T13:02:26.691Z,100814.84
2022-11-12T13:05:35.560Z,100814.62
2022-11-12T13:08:37.800Z,100807.50
2022-11-12T13:12:01.592Z,100817.63
2022-11-12T13:15:13.645Z,100815.03
2022-11-12T13:18:57.651Z,100815.97
2022-11-12T13:22:18.305Z,100807.06
2022-11-12T13:25:20.390Z,100807.31
2022-11-12T13:28:22.591Z,100812.84
2022-11-12T13:31:29.319Z,100809.72
2022-11-12T13:34:32.908Z,100813.81
2022-11-12T13:37:35.739Z,100814.25
2022-11-12T13:40:59.347Z,100807.56
2022-11-12T13:44:05.418Z,100809.59
2022-11-12T13:47:12.948Z,100814.00
2022-11-12T13:50:18.397Z,100806.34
2022-11-12T13:53:24.578Z,100810.41
2022-11-12T13:56:29.169Z,100812.72
2022-11-12T13:59:31.339Z,100807.94
2022-11-12T14:02:36.874Z,100808.25
2022-11-12T14:05:50.514Z,100804.38
2022-11-12T14:09:14.450Z,100811.41
2022-11-12T14:12:19.184Z,100802.31
2022-11-12T14:15:58.800Z,100799.03
2022-11-12T14:19:41.137Z,100805.38
2022-11-12T14:22:44.943Z,100806.91
2022-11-12T14:25:52.323Z,100814.81
2022-11-12T14:28:57.688Z,100808.75
2022-11-12T14:32:02.127Z,100802.69
2022-11-12T14:35:23.434Z,100813.25
2022-11-12T14:38:46.662Z,100808.78
2022-11-12T14:41:50.866Z,100810.34
2022-11-12T14:44:53.080Z,100805.94
2022-11-12T14:47:55.353Z,100803.53
2022-11-12T14:51:03.955Z,100805.84
2022-11-12T14:54:08.782Z,100803.97
2022-11-12T14:57:22.543Z,100804.84
2022-11-12T15:00:30.735Z,100807.41
2022-11-12T15:03:33.117Z,100814.19
2022-11-12T15:06:35.383Z,100813.91
2022-11-12T15:09:38.677Z,100809.66
2022-11-12T15:12:40.890Z,100812.63
2022-11-12T15:16:04.940Z,100813.22
2022-11-12T15:19:23.558Z,100809.87
2022-11-12T15:22:25.777Z,100826.56
2022-11-12T15:25:30.436Z,100830.31
2022-11-12T15:28:32.669Z,100824.31
2022-11-12T15:31:47.538Z,100829.50
2022-11-12T15:34:50.475Z,100831.38
2022-11-12T15:37:53.223Z,100831.47
2022-11-12T15:40:57.627Z,100828.59
2022-11-12T15:44:00.309Z,100836.78
2022-11-12T15:47:03.126Z,100832.97
2022-11-12T15:50:31.873Z,100830.81
2022-11-12T15:53:34.944Z,100836.13
2022-11-12T15:56:37.185Z,100838.34
2022-11-12T15:59:39.370Z,100843.50
2022-11-12T16:02:42.085Z,100846.97
2022-11-12T16:05:44.833Z,100844.66
2022-11-12T16:08:47.405Z,100842.00
2022-11-12T16:11:50.913Z,100852.47
2022-11-12T16:14:53.112Z,100846.66
2022-11-12T16:18:00.238Z,100845.00
2022-11-12T16:21:02.369Z,100842.84
2022-11-12T16:24:04.839Z,100839.31
2022-11-12T16:27:10.056Z,100837.69
2022-11-12T16:30:21.691Z,100844.31
2022-11-12T16:33:23.900Z,100844.81
2022-11-12T16:36:26.059Z,100842.94
2022-11-12T16:39:28.264Z,100840.78
2022-11-12T16:42:30.445Z,100848.75
2022-11-12T16:45:35.821Z,100856.69
2022-11-12T16:48:38.266Z,100848.88
2022-11-12T16:51:40.830Z,100842.41
2022-11-12T16:54:43.050Z,100837.28
2022-11-12T16:57:45.601Z,100833.66
2022-11-12T17:00:50.188Z,100829.97
2022-11-12T17:03:53.520Z,100827.63
2022-11-12T17:06:55.723Z,100830.78
2022-11-12T17:09:57.975Z,100830.44
2022-11-12T17:13:00.175Z,100830.94
2022-11-12T17:16:02.331Z,100831.75
2022-11-12T17:19:05.522Z,100830.25
2022-11-12T17:22:07.689Z,100838.19
2022-11-12T17:25:09.929Z,100844.38
2022-11-12T17:28:12.140Z,100831.94
2022-11-12T17:31:15.728Z,100834.41
2022-11-12T17:34:17.984Z,100830.91
2022-11-12T17:37:20.259Z,100837.66
2022-11-12T17:40:22.422Z,100831.62
2022-11-12T17:43:26.109Z,100833.00
2022-11-12T17:46:29.349Z,100830.19
2022-11-12T17:49:31.538Z,100828.12
2022-11-12T17:52:33.900Z,100830.78
2022-11-12T17:55:36.304Z,100838.72
2022-11-12T17:58:38.838Z,100831.22
2022-11-12T18:01:41.126Z,100833.63
2022-11-12T18:04:43.402Z,100834.72
2022-11-12T18:07:45.696Z,100826.38
2022-11-12T18:10:48.058Z,100831.16
2022-11-12T18:13:50.875Z,100836.50
2022-11-12T18:16:53.375Z,100838.16
2022-11-12T18:19:55.809Z,100831.19
2022-11-12T18:22:58.777Z,100834.47
2022-11-12T18:26:01.326Z,100834.00
2022-11-12T18:29:03.591Z,100834.31
2022-11-12T18:32:05.995Z,100839.28
2022-11-12T18:35:08.462Z,100847.09
2022-11-12T18:38:10.926Z,100848.47
2022-11-12T18:41:15.202Z,100845.28
2022-11-12T18:44:19.943Z,100845.81
2022-11-12T18:47:27.927Z,100852.38
2022-11-12T18:50:31.159Z,100848.59
2022-11-12T18:53:34.165Z,100851.41
2022-11-12T18:56:38.273Z,100857.22
2022-11-12T18:59:40.483Z,100855.28
2022-11-12T19:02:43.328Z,100857.84
2022-11-12T19:05:46.006Z,100853.06
2022-11-12T19:08:48.501Z,100853.53
2022-11-12T19:11:51.103Z,100854.06
2022-11-12T19:14:53.627Z,100859.81
2022-11-12T19:17:55.923Z,100857.31
2022-11-12T19:21:06.053Z,100860.06
2022-11-12T19:24:08.381Z,100858.94
2022-11-12T19:27:10.598Z,100858.25
2022-11-12T19:30:13.323Z,100862.19
2022-11-12T19:33:16.191Z,100870.97
2022-11-12T19:36:22.310Z,100864.13
2022-11-12T19:39:24.902Z,100873.38
2022-11-12T19:42:27.747Z,100871.13
2022-11-12T19:45:30.193Z,100874.63
2022-11-12T19:48:33.198Z,100872.62
2022-11-12T19:51:35.651Z,100875.81
2022-11-12T19:54:37.863Z,100880.81
2022-11-12T19:57:46.572Z,100883.12
2022-11-12T20:00:49.033Z,100888.94
2022-11-12T20:03:51.314Z,100889.56
2022-11-12T20:06:53.670Z,100893.81
2022-11-12T20:10:00.748Z,100894.87
2022-11-12T20:13:03.662Z,100898.81
2022-11-12T20:16:07.792Z,100899.97
2022-11-12T20:19:10.138Z,100901.97
2022-11-12T20:22:12.599Z,100900.06
2022-11-12T20:25:14.862Z,100904.06
2022-11-12T20:28:17.386Z,100905.81
2022-11-12T20:31:20.879Z,100901.91
2022-11-12T20:34:23.435Z,100898.13
2022-11-12T20:37:25.780Z,100896.91
2022-11-12T20:40:28.132Z,100901.22
2022-11-12T20:43:30.335Z,100903.88
2022-11-12T20:46:32.731Z,100893.25
2022-11-12T20:49:35.255Z,100889.34
2022-11-12T20:52:37.493Z,100890.03
2022-11-12T20:55:39.952Z,100886.78
2022-11-12T20:58:42.388Z,100894.25
2022-11-12T21:01:44.816Z,100894.66
2022-11-12T21:04:48.577Z,100887.78
2022-11-12T21:07:54.054Z,100888.37
2022-11-12T21:10:57.328Z,100894.50
2022-11-12T21:14:01.055Z,100882.16
2022-11-12T21:17:03.466Z,100885.38
2022-11-12T21:20:06.562Z,100886.50
2022-11-12T21:23:08.908Z,100893.09
2022-11-12T21:26:15.273Z,100894.75
2022-11-12T21:29:19.094Z,100899.16
2022-11-12T21:32:21.409Z,100893.03
2022-11-12T21:35:23.597Z,100899.00
2022-11-12T21:38:27.386Z,100899.16
2022-11-12T21:41:32.050Z,100896.22
2022-11-12T21:44:34.315Z,100895.00
2022-11-12T21:47:36.494Z,100896.44
2022-11-12T21:50:38.791Z,100896.56
2022-11-12T21:53:41.596Z,100894.09
2022-11-12T21:56:45.150Z,100888.72
2022-11-12T21:59:47.912Z,100891.84
2022-11-12T22:02:50.150Z,100898.47
2022-11-12T22:05:52.309Z,100892.34
2022-11-12T22:08:55.769Z,100888.56
2022-11-12T22:11:57.917Z,100887.87
2022-11-12T22:15:00.106Z,100884.16
2022-11-12T22:18:02.284Z,100885.56
2022-11-12T22:21:06.929Z,100880.06
2022-11-12T22:24:09.656Z,100879.84
2022-11-12T22:27:11.821Z,100878.59
2022-11-12T22:30:15.253Z,100881.41
2022-11-12T22:33:17.418Z,100880.03
2022-11-12T22:36:21.980Z,100871.81
2022-11-12T22:39:24.162Z,100884.19
2022-11-12T22:42:26.293Z,100876.69
2022-11-12T22:45:28.649Z,100883.38
2022-11-12T22:48:30.845Z,100874.03
2022-11-12T22:51:34.469Z,100882.53
2022-11-12T22:54:36.684Z,100876.97
2022-11-12T22:57:38.854Z,100888.16
2022-11-12T23:00:42.826Z,100876.50
2022-11-12T23:03:45.018Z,100886.19
2022-11-12T23:06:47.186Z,100882.75
2022-11-12T23:09:49.398Z,100880.56
2022-11-12T23:12:51.617Z,100883.06
2022-11-12T23:15:54.031Z,100876.38
2022-11-12T23:18:56.349Z,100881.69
2022-11-12T23:21:58.653Z,100880.28
2022-11-12T23:25:00.876Z,100888.34
2022-11-12T23:28:03.023Z,100882.09
2022-11-12T23:31:11.659Z,100887.06
2022-11-12T23:34:13.845Z,100885.91
2022-11-12T23:37:16.017Z,100887.00
2022-11-12T23:40:18.404Z,100890.00
2022-11-12T23:43:21.034Z,100884.59
2022-11-12T23:46:23.650Z,100893.31
2022-11-12T23:49:25.815Z,100886.00
2022-11-12T23:52:27.970Z,100890.47
2022-11-12T23:55:31.199Z,100889.91
2022-11-12T23:58:37.223Z,100898.09
